Time;durP1;ratioP1;P1;durP2;ratioP2;P2;SDS_P1;SDS_P2;PMS_P1;PMS_P2;Temp;Humidity;BMP_temperature;BMP_pressure;BME280_temperature;BME280_humidity;BME280_pressure;Samples;Min_cycle;Max_cycle;Signal;HPM_P1;HPM_P2
2021/12/20 00:01:11;;;;;;;3.47;1.95;;;21.80;47.40;;;;;;5069280;28;43449;-62
2021/12/20 00:03:38;;;;;;;3.55;1.80;;;21.80;47.40;;;;;;5054698;28;43521;-62
2021/12/20 00:06:06;;;;;;;3.80;2.08;;;21.80;47.30;;;;;;5067956;28;43799;-62
2021/12/20 00:08:36;;;;;;;4.82;1.90;;;21.80;47.30;;;;;;5066529;28;43495;-61
2021/12/20 00:11:04;;;;;;;4.28;2.25;;;21.80;47.30;;;;;;5063311;28;43526;-61
2021/12/20 00:13:32;;;;;;;4.15;1.98;;;21.80;47.40;;;;;;5071834;28;43542;-61
2021/12/20 00:15:59;;;;;;;5.10;2.13;;;21.80;47.40;;;;;;5066802;28;43797;-61
2021/12/20 00:18:27;;;;;;;3.25;1.77;;;21.80;47.30;;;;;;5067201;28;43660;-62
2021/12/20 00:20:55;;;;;;;3.10;1.77;;;21.70;47.30;;;;;;5062325;28;43575;-62
2021/12/20 00:23:22;;;;;;;5.20;2.10;;;21.70;47.30;;;;;;5071851;28;43513;-61
2021/12/20 00:25:50;;;;;;;4.05;2.10;;;21.70;47.40;;;;;;5040475;28;43800;-62
2021/12/20 00:28:19;;;;;;;5.68;2.42;;;21.70;47.30;;;;;;5058694;28;43459;-62
2021/12/20 00:30:47;;;;;;;4.05;2.03;;;21.70;47.40;;;;;;5064534;28;43572;-62
2021/12/20 00:33:15;;;;;;;4.20;2.10;;;21.70;47.30;;;;;;5070602;28;43476;-62
2021/12/20 00:35:44;;;;;;;4.03;2.40;;;21.70;47.40;;;;;;5067212;28;44698;-62
2021/12/20 00:40:58;;;;;;;2.80;1.55;;;21.70;47.40;;;;;;5066845;28;43438;-62
2021/12/20 00:43:26;;;;;;;3.03;1.60;;;21.60;47.40;;;;;;5069177;28;43481;-62
2021/12/20 00:45:53;;;;;;;3.30;1.95;;;21.60;47.40;;;;;;5069130;28;43807;-62
2021/12/20 00:48:21;;;;;;;4.10;2.13;;;21.60;47.40;;;;;;5066083;28;43978;-62
2021/12/20 00:50:49;;;;;;;3.53;1.80;;;21.60;47.40;;;;;;5073247;28;43514;-62
2021/12/20 00:53:16;;;;;;;2.88;1.55;;;21.60;47.40;;;;;;5050162;28;44114;-62
2021/12/20 00:55:44;;;;;;;3.03;1.80;;;21.60;47.40;;;;;;5067268;28;43989;-62
2021/12/20 00:58:11;;;;;;;3.28;1.60;;;21.60;47.40;;;;;;5065363;28;43517;-61
2021/12/20 01:00:42;;;;;;;3.80;1.70;;;21.60;47.40;;;;;;5074092;28;43565;-61
2021/12/20 01:03:10;;;;;;;;;;;21.60;47.40;;;;;;5065780;28;43365;-62
2021/12/20 01:05:39;;;;;;;4.18;1.98;;;21.60;47.40;;;;;;5058145;28;44129;-62
2021/12/20 01:08:08;;;;;;;3.90;1.80;;;21.50;47.40;;;;;;5041367;28;43406;-62
2021/12/20 01:10:38;;;;;;;3.30;1.80;;;21.50;47.40;;;;;;5073987;28;44045;-62
2021/12/20 01:13:06;;;;;;;4.78;2.05;;;21.50;47.40;;;;;;5058609;28;43426;-62
2021/12/20 01:15:46;;;;;;;3.28;1.60;;;21.50;47.50;;;;;;5057039;28;43793;-62
2021/12/20 01:18:13;;;;;;;2.67;1.60;;;21.50;47.40;;;;;;5064254;28;43466;-61
2021/12/20 01:20:42;;;;;;;2.45;1.75;;;21.50;47.50;;;;;;5064090;28;43399;-62
2021/12/20 01:23:11;;;;;;;2.75;1.70;;;21.40;47.40;;;;;;5065081;28;43535;-61
2021/12/20 01:25:39;;;;;;;4.78;1.98;;;21.50;47.40;;;;;;5057665;28;43812;-62
2021/12/20 01:28:08;;;;;;;2.83;1.48;;;21.50;47.40;;;;;;5075354;28;43421;-62
2021/12/20 01:30:37;;;;;;;2.85;1.65;;;21.40;48.00;;;;;;5043212;28;44024;-62
2021/12/20 01:33:11;;;;;;;2.63;1.70;;;21.40;47.40;;;;;;5060400;28;43579;-62
2021/12/20 01:35:39;;;;;;;3.55;1.75;;;21.40;47.40;;;;;;5048659;28;43965;-61
2021/12/20 01:38:08;;;;;;;3.20;1.58;;;21.40;47.40;;;;;;5050222;28;44040;-61
2021/12/20 01:40:38;;;;;;;1.92;1.45;;;21.40;47.40;;;;;;5049410;28;43428;-62
2021/12/20 01:43:08;;;;;;;4.72;1.60;;;21.40;47.50;;;;;;5044619;28;43571;-61
2021/12/20 01:45:36;;;;;;;3.47;1.80;;;21.40;47.50;;;;;;5057577;28;44332;-62
2021/12/20 01:48:10;;;;;;;2.95;1.60;;;21.30;47.40;;;;;;5049628;28;43471;-62
2021/12/20 01:53:20;;;;;;;2.35;1.48;;;21.30;47.40;;;;;;5063563;28;43519;-62
2021/12/20 01:55:49;;;;;;;2.72;1.50;;;21.30;47.40;;;;;;5052257;28;43806;-62
2021/12/20 01:58:17;;;;;;;3.20;1.55;;;21.30;47.40;;;;;;5048243;28;43447;-62
2021/12/20 02:01:18;;;;;;;1.98;1.30;;;21.30;47.50;;;;;;5062565;28;43457;-61
2021/12/20 02:03:55;;;;;;;2.17;1.67;;;21.30;47.50;;;;;;5052436;28;43565;-62
2021/12/20 02:06:33;;;;;;;2.53;1.60;;;21.30;47.50;;;;;;5059069;28;43859;-62
2021/12/20 02:09:07;;;;;;;1.40;1.20;;;21.30;47.50;;;;;;5056544;28;43485;-62
2021/12/20 02:11:39;;;;;;;2.40;1.50;;;21.20;47.50;;;;;;5062288;28;43424;-61
2021/12/20 02:14:08;;;;;;;2.92;1.50;;;21.30;47.40;;;;;;5056278;28;43410;-62
2021/12/20 02:16:36;;;;;;;2.75;1.50;;;21.20;47.50;;;;;;5062204;28;43783;-61
2021/12/20 02:19:07;;;;;;;2.38;1.45;;;21.20;47.50;;;;;;5052719;28;44047;-61
2021/12/20 02:21:34;;;;;;;2.50;1.50;;;21.20;47.40;;;;;;5062609;28;43413;-61
2021/12/20 02:24:02;;;;;;;2.65;1.30;;;21.20;47.40;;;;;;5059456;28;43497;-62
2021/12/20 02:26:30;;;;;;;2.75;1.55;;;21.20;47.40;;;;;;5054415;28;44247;-61
2021/12/20 02:29:03;;;;;;;3.00;1.50;;;21.20;47.40;;;;;;5054648;28;44019;-62
2021/12/20 02:37:26;;;;;;;2.10;1.40;;;21.20;47.40;;;;;;5051807;28;43975;-61
2021/12/20 02:39:55;;;;;;;2.30;1.47;;;21.10;47.40;;;;;;5061906;28;43538;-62
2021/12/20 02:42:28;;;;;;;1.60;1.20;;;21.10;47.40;;;;;;5038695;28;43507;-61
2021/12/20 02:45:09;;;;;;;2.55;1.42;;;21.10;47.40;;;;;;5050746;28;43584;-61
2021/12/20 02:47:42;;;;;;;2.90;1.42;;;21.10;47.40;;;;;;5059797;28;44601;-62
2021/12/20 02:50:14;;;;;;;1.95;1.17;;;21.10;47.40;;;;;;5050016;28;43714;-61
2021/12/20 02:52:42;;;;;;;1.98;1.25;;;21.00;47.30;;;;;;5048202;28;43498;-62
2021/12/20 02:55:10;;;;;;;1.50;1.13;;;21.00;47.30;;;;;;5060434;28;43502;-62
2021/12/20 02:57:38;;;;;;;2.10;1.15;;;21.00;47.30;;;;;;5058688;28;44962;-62
2021/12/20 03:00:08;;;;;;;2.60;1.52;;;21.00;48.00;;;;;;5047402;28;43466;-61
2021/12/20 03:02:36;;;;;;;1.50;1.20;;;21.00;47.40;;;;;;5047391;28;43435;-61
2021/12/20 03:05:05;;;;;;;2.05;1.50;;;21.00;47.30;;;;;;5055412;28;43597;-62
2021/12/20 03:07:41;;;;;;;2.03;1.05;;;21.00;47.30;;;;;;5062279;28;43814;-62
2021/12/20 03:10:09;;;;;;;2.00;1.23;;;21.00;47.30;;;;;;5052589;28;44031;-61
2021/12/20 03:12:37;;;;;;;2.67;1.30;;;21.00;47.30;;;;;;5049249;28;43510;-62
2021/12/20 03:15:12;;;;;;;1.75;1.15;;;21.00;47.30;;;;;;5050959;28;43479;-61
2021/12/20 03:17:41;;;;;;;1.92;1.20;;;21.00;47.30;;;;;;5057450;28;44897;-62
2021/12/20 03:20:09;;;;;;;2.25;1.25;;;21.00;47.20;;;;;;5061835;28;43902;-61
2021/12/20 03:22:37;;;;;;;2.13;1.23;;;20.90;47.20;;;;;;5056740;28;43500;-61
2021/12/20 03:25:05;;;;;;;1.98;1.38;;;20.90;47.20;;;;;;5053396;28;43492;-62
2021/12/20 03:27:32;;;;;;;2.55;1.55;;;20.90;47.30;;;;;;5053550;28;43801;-62
2021/12/20 03:30:00;;;;;;;2.15;1.60;;;20.90;47.30;;;;;;5043529;28;43477;-62
2021/12/20 03:32:27;;;;;;;1.52;1.10;;;20.90;47.20;;;;;;5044570;28;43481;-62
2021/12/20 03:34:55;;;;;;;1.75;1.20;;;20.90;47.20;;;;;;5053417;28;43459;-62
2021/12/20 03:37:22;;;;;;;1.98;1.13;;;20.90;47.20;;;;;;5041169;28;44044;-62
2021/12/20 03:39:50;;;;;;;2.03;1.38;;;20.90;47.20;;;;;;5044035;28;43838;-62
2021/12/20 03:42:19;;;;;;;1.58;1.27;;;20.90;47.30;;;;;;5045576;28;43443;-62
2021/12/20 03:44:47;;;;;;;2.42;1.42;;;20.80;47.20;;;;;;5058719;28;43530;-61
2021/12/20 03:47:15;;;;;;;2.85;1.50;;;20.80;47.20;;;;;;5053140;28;44699;-62
2021/12/20 03:49:43;;;;;;;2.17;1.38;;;20.80;47.20;;;;;;5043792;28;43545;-62
2021/12/20 03:52:10;;;;;;;2.00;1.38;;;20.80;47.20;;;;;;5052767;28;43489;-62
2021/12/20 03:54:38;;;;;;;2.28;1.30;;;20.80;47.20;;;;;;5053409;28;43474;-62
2021/12/20 03:57:06;;;;;;;1.67;1.25;;;20.80;47.20;;;;;;5053456;28;43583;-62
2021/12/20 03:59:34;;;;;;;2.00;1.40;;;20.80;47.20;;;;;;5056395;28;43454;-61
2021/12/20 04:02:02;;;;;;;3.42;1.50;;;20.80;47.20;;;;;;5057304;28;44105;-62
2021/12/20 04:04:30;;;;;;;2.28;1.45;;;20.70;47.10;;;;;;5053794;28;43633;-61
2021/12/20 04:06:57;;;;;;;3.10;1.48;;;20.70;47.20;;;;;;5052815;28;43799;-62
2021/12/20 04:09:25;;;;;;;1.85;1.30;;;20.70;47.10;;;;;;5047947;28;43482;-62
2021/12/20 04:11:52;;;;;;;1.70;1.38;;;20.70;47.20;;;;;;5056978;28;43441;-62
2021/12/20 04:14:20;;;;;;;2.53;1.48;;;20.70;47.20;;;;;;5036117;28;43611;-62
2021/12/20 04:16:47;;;;;;;1.65;1.25;;;20.70;47.20;;;;;;5057061;28;44970;-61
2021/12/20 04:19:15;;;;;;;2.53;1.35;;;20.70;47.20;;;;;;5055619;28;43972;-62
2021/12/20 04:21:42;;;;;;;2.80;1.30;;;20.70;47.20;;;;;;5055140;28;43413;-61
2021/12/20 04:24:10;;;;;;;2.05;1.25;;;20.60;47.20;;;;;;5050732;28;43502;-62
2021/12/20 04:26:37;;;;;;;2.45;1.45;;;20.70;47.20;;;;;;5043260;28;44125;-62
2021/12/20 04:29:05;;;;;;;2.45;1.30;;;20.60;47.10;;;;;;5045838;28;43491;-62
2021/12/20 04:31:35;;;;;;;2.17;1.52;;;20.60;47.10;;;;;;5049640;28;43399;-62
2021/12/20 04:34:03;;;;;;;2.13;1.50;;;20.60;47.10;;;;;;5028917;28;43540;-62
2021/12/20 04:36:33;;;;;;;3.20;1.58;;;20.60;47.10;;;;;;5042042;28;43877;-62
2021/12/20 04:39:02;;;;;;;2.22;1.42;;;20.60;47.10;;;;;;5062839;28;43420;-61
2021/12/20 04:41:30;;;;;;;2.42;1.40;;;20.60;47.10;;;;;;5062730;28;43468;-61
2021/12/20 04:43:57;;;;;;;2.60;1.30;;;20.60;47.10;;;;;;5055776;28;43402;-61
2021/12/20 04:46:25;;;;;;;2.78;1.40;;;20.60;47.10;;;;;;5051687;28;44976;-62
2021/12/20 04:48:52;;;;;;;1.63;1.35;;;20.60;47.00;;;;;;5062467;28;43494;-62
2021/12/20 04:51:20;;;;;;;1.30;1.15;;;20.60;47.10;;;;;;5062296;28;43556;-62
2021/12/20 04:53:48;;;;;;;2.47;1.60;;;20.60;47.10;;;;;;5050020;28;43501;-62
2021/12/20 04:56:16;;;;;;;2.17;1.27;;;20.60;47.10;;;;;;5051668;28;44746;-62
2021/12/20 04:58:43;;;;;;;2.80;1.30;;;20.60;47.10;;;;;;5062510;28;43500;-61
2021/12/20 05:01:11;;;;;;;2.15;1.40;;;20.50;47.10;;;;;;5062292;28;43542;-61
2021/12/20 05:03:38;;;;;;;2.33;1.40;;;20.50;47.00;;;;;;5058705;28;43631;-61
2021/12/20 05:06:07;;;;;;;3.17;1.40;;;20.50;47.00;;;;;;5059484;28;43791;-62
2021/12/20 05:08:45;;;;;;;2.45;1.40;;;20.50;47.00;;;;;;5062089;28;43857;-62
2021/12/20 05:11:13;;;;;;;2.50;1.40;;;20.50;47.00;;;;;;5060270;28;43478;-62
2021/12/20 05:13:41;;;;;;;2.25;1.50;;;20.50;47.00;;;;;;5062314;28;43458;-62
2021/12/20 05:16:08;;;;;;;1.85;1.40;;;20.50;47.00;;;;;;5064310;28;43791;-62
2021/12/20 05:18:36;;;;;;;3.30;1.60;;;20.50;47.00;;;;;;5057142;28;43450;-62
2021/12/20 05:21:04;;;;;;;2.13;1.45;;;20.50;47.00;;;;;;5055743;28;43407;-62
2021/12/20 05:23:31;;;;;;;2.40;1.30;;;20.50;47.00;;;;;;5040826;28;43662;-62
2021/12/20 05:25:59;;;;;;;2.33;1.50;;;20.40;46.90;;;;;;5054486;28;43842;-62
2021/12/20 05:28:27;;;;;;;2.03;1.40;;;20.50;47.00;;;;;;5039976;28;44071;-62
2021/12/20 05:30:54;;;;;;;3.47;1.50;;;20.40;47.00;;;;;;5059971;28;43436;-62
2021/12/20 05:33:23;;;;;;;1.88;1.15;;;20.40;46.90;;;;;;5057950;28;43531;-62
2021/12/20 05:35:51;;;;;;;2.53;1.50;;;20.40;47.00;;;;;;5061780;28;44041;-62
2021/12/20 05:38:30;;;;;;;3.92;1.40;;;20.40;47.00;;;;;;5052311;28;43916;-62
2021/12/20 05:40:57;;;;;;;4.43;1.40;;;20.40;46.90;;;;;;5049616;28;43455;-62
2021/12/20 05:43:25;;;;;;;2.70;1.38;;;20.40;47.00;;;;;;5058431;28;43507;-62
2021/12/20 05:45:53;;;;;;;2.35;1.45;;;20.40;47.00;;;;;;5051984;28;44987;-62
2021/12/20 05:48:21;;;;;;;1.67;1.30;;;20.30;47.00;;;;;;5061925;28;43454;-62
2021/12/20 05:50:48;;;;;;;2.67;1.50;;;20.30;47.00;;;;;;5055345;28;43448;-62
2021/12/20 05:53:16;;;;;;;2.17;1.20;;;20.30;46.90;;;;;;5059273;28;43518;-62
2021/12/20 05:55:43;;;;;;;2.15;1.25;;;20.30;47.00;;;;;;5040513;28;44964;-61
2021/12/20 05:58:11;;;;;;;3.13;1.50;;;20.30;47.00;;;;;;5057918;28;43398;-61
2021/12/20 06:00:38;;;;;;;3.58;1.83;;;20.30;47.00;;;;;;5054133;28;43510;-62
2021/12/20 06:03:07;;;;;;;2.35;1.20;;;20.30;47.00;;;;;;5056106;28;43542;-61
2021/12/20 06:05:34;;;;;;;3.28;1.50;;;20.30;47.00;;;;;;5058189;28;44660;-62
2021/12/20 06:08:02;;;;;;;2.20;1.40;;;20.20;47.00;;;;;;5057738;28;43467;-62
2021/12/20 06:10:30;;;;;;;2.83;1.60;;;20.30;47.00;;;;;;5054798;28;43563;-62
2021/12/20 06:12:57;;;;;;;2.47;1.50;;;20.20;46.90;;;;;;5058653;28;43521;-62
2021/12/20 06:15:25;;;;;;;2.63;1.70;;;20.20;46.90;;;;;;5051518;28;44100;-62
2021/12/20 06:17:52;;;;;;;2.25;1.40;;;20.20;46.90;;;;;;5063756;28;43959;-62
2021/12/20 06:20:20;;;;;;;3.45;1.60;;;20.20;46.90;;;;;;5059267;28;43501;-62
2021/12/20 06:22:47;;;;;;;2.70;1.70;;;20.20;46.80;;;;;;5055265;28;43524;-62
2021/12/20 06:25:16;;;;;;;3.50;1.65;;;20.20;46.80;;;;;;5045124;28;43879;-62
2021/12/20 06:27:44;;;;;;;1.98;1.30;;;20.20;46.80;;;;;;5047535;28;43583;-62
2021/12/20 06:30:12;;;;;;;2.60;1.50;;;20.20;46.80;;;;;;5048544;28;43455;-62
2021/12/20 06:32:41;;;;;;;3.03;1.58;;;20.20;46.70;;;;;;5054821;28;43530;-62
2021/12/20 06:35:29;;;;;;;2.00;1.40;;;20.30;46.80;;;;;;5051448;28;43580;-61
2021/12/20 06:38:00;;;;;;;1.77;1.33;;;20.20;46.70;;;;;;5054003;28;43423;-62
2021/12/20 06:40:30;;;;;;;2.30;1.60;;;20.20;46.80;;;;;;5055659;28;43547;-62
2021/12/20 06:42:58;;;;;;;3.50;1.40;;;20.30;46.70;;;;;;5043852;28;43598;-62
2021/12/20 06:45:29;;;;;;;2.60;1.42;;;20.20;46.70;;;;;;5061559;28;44050;-62
2021/12/20 06:47:57;;;;;;;2.08;1.60;;;20.20;46.80;;;;;;5053731;28;43610;-61
2021/12/20 06:50:27;;;;;;;1.48;1.25;;;20.20;46.80;;;;;;5047626;28;43520;-62
2021/12/20 06:52:55;;;;;;;2.42;1.50;;;20.20;46.80;;;;;;5057776;28;43502;-62
2021/12/20 06:55:23;;;;;;;4.55;1.85;;;20.20;46.80;;;;;;5055465;28;43981;-62
2021/12/20 06:57:51;;;;;;;3.03;1.50;;;20.20;46.80;;;;;;5053065;28;43558;-61
2021/12/20 07:00:19;;;;;;;2.35;1.63;;;20.20;46.80;;;;;;5056689;28;43490;-61
2021/12/20 07:02:46;;;;;;;2.38;1.20;;;20.30;46.80;;;;;;5033605;28;43490;-62
2021/12/20 07:05:14;;;;;;;2.92;1.30;;;20.30;46.80;;;;;;5037245;28;44051;-62
2021/12/20 07:07:42;;;;;;;2.63;1.65;;;20.30;46.80;;;;;;5052468;28;43524;-62
2021/12/20 07:10:10;;;;;;;2.42;1.48;;;20.30;46.80;;;;;;5056533;28;43466;-62
2021/12/20 07:12:38;;;;;;;2.13;1.38;;;20.30;46.80;;;;;;5057077;28;43599;-61
2021/12/20 07:15:11;;;;;;;2.75;1.50;;;20.30;46.70;;;;;;5060687;28;44934;-61
2021/12/20 07:17:39;;;;;;;1.88;1.33;;;20.30;46.70;;;;;;5073569;28;43961;-61
2021/12/20 07:20:07;;;;;;;2.22;1.48;;;20.30;46.70;;;;;;5048999;28;43407;-62
2021/12/20 07:22:35;;;;;;;2.63;1.45;;;20.30;46.70;;;;;;5043054;28;43668;-62
2021/12/20 07:25:03;;;;;;;3.28;1.42;;;20.40;46.80;;;;;;5036806;28;43939;-61
2021/12/20 07:27:30;;;;;;;2.22;1.35;;;20.30;46.70;;;;;;5037912;28;43785;-61
2021/12/20 07:29:58;;;;;;;2.83;1.48;;;20.40;46.70;;;;;;5044213;28;43574;-62
2021/12/20 07:32:26;;;;;;;3.08;1.60;;;20.40;46.60;;;;;;5043202;28;43566;-62
2021/12/20 07:34:54;;;;;;;3.20;1.42;;;20.40;46.60;;;;;;5052809;28;43785;-62
2021/12/20 07:37:22;;;;;;;2.45;1.52;;;20.40;46.50;;;;;;5054982;28;43979;-61
2021/12/20 07:39:49;;;;;;;2.67;1.65;;;20.40;46.50;;;;;;5042991;28;43563;-61
2021/12/20 07:42:17;;;;;;;1.55;1.30;;;20.40;46.50;;;;;;5044531;28;44025;-61
2021/12/20 07:44:45;;;;;;;2.88;1.65;;;20.40;46.60;;;;;;5056519;28;43810;-61
2021/12/20 07:47:12;;;;;;;3.03;1.63;;;20.40;46.50;;;;;;5052136;28;43988;-61
2021/12/20 07:49:40;;;;;;;3.17;1.80;;;20.40;46.50;;;;;;5044753;28;43494;-61
2021/12/20 07:52:08;;;;;;;2.97;1.33;;;20.40;46.50;;;;;;5038991;28;43452;-62
2021/12/20 07:54:36;;;;;;;2.72;1.40;;;20.50;46.50;;;;;;5054576;28;44061;-61
2021/12/20 07:57:03;;;;;;;2.35;1.60;;;20.50;46.50;;;;;;5047079;28;43555;-61
2021/12/20 07:59:31;;;;;;;2.33;1.60;;;20.50;46.60;;;;;;5043531;28;43565;-61
2021/12/20 08:01:59;;;;;;;2.38;1.50;;;20.50;46.50;;;;;;5052975;28;43566;-62
2021/12/20 08:04:27;;;;;;;3.22;1.40;;;20.50;46.50;;;;;;5054789;28;44997;-59
2021/12/20 08:06:54;;;;;;;3.40;1.80;;;20.50;46.80;;;;;;5046926;28;43511;-61
2021/12/20 08:09:22;;;;;;;3.20;1.60;;;20.50;46.90;;;;;;5041738;28;43513;-61
2021/12/20 08:11:49;;;;;;;2.22;1.63;;;20.50;46.60;;;;;;5045194;28;43570;-61
2021/12/20 08:14:17;;;;;;;2.45;1.67;;;20.50;46.70;;;;;;5058644;28;44959;-61
2021/12/20 08:16:44;;;;;;;2.45;1.60;;;20.40;46.80;;;;;;5063338;28;43434;-61
2021/12/20 08:19:12;;;;;;;2.50;1.60;;;20.40;46.70;;;;;;5056014;28;43479;-62
2021/12/20 08:21:39;;;;;;;4.90;1.90;;;20.40;46.80;;;;;;5055227;28;43540;-62
2021/12/20 08:24:07;;;;;;;3.58;2.25;;;20.40;46.80;;;;;;5046511;28;43877;-60
2021/12/20 08:26:35;;;;;;;2.28;1.88;;;20.40;46.70;;;;;;5043447;28;44063;-62
2021/12/20 08:29:02;;;;;;;4.75;1.98;;;20.50;46.80;;;;;;5047649;28;43458;-60
2021/12/20 08:31:30;;;;;;;3.17;1.98;;;20.50;46.80;;;;;;5056913;28;43475;-61
2021/12/20 08:33:57;;;;;;;3.40;1.88;;;20.60;46.70;;;;;;5043229;28;43789;-62
2021/12/20 08:36:25;;;;;;;2.22;2.03;;;20.70;46.70;;;;;;5043102;28;43417;-62
2021/12/20 08:38:53;;;;;;;4.20;2.30;;;20.70;46.60;;;;;;5055908;28;44133;-62
2021/12/20 08:41:21;;;;;;;2.58;1.80;;;20.80;46.60;;;;;;5059230;28;43445;-62
2021/12/20 08:43:48;;;;;;;2.13;1.70;;;20.90;46.40;;;;;;5058503;28;44046;-62
2021/12/20 08:46:16;;;;;;;2.75;1.70;;;21.00;46.20;;;;;;5061768;28;43561;-61
2021/12/20 08:48:43;;;;;;;4.20;2.13;;;21.20;46.10;;;;;;5050412;28;43427;-62
2021/12/20 08:51:12;;;;;;;2.38;1.77;;;21.40;45.90;;;;;;5050987;28;43451;-61
2021/12/20 08:53:40;;;;;;;4.78;2.53;;;21.60;45.80;;;;;;5050013;28;44052;-62
2021/12/20 08:56:07;;;;;;;3.00;1.92;;;21.70;45.40;;;;;;5044229;28;43605;-62
2021/12/20 08:58:36;;;;;;;2.90;1.98;;;21.90;45.30;;;;;;5045705;28;43567;-62
2021/12/20 09:01:04;;;;;;;2.63;1.92;;;21.90;45.10;;;;;;5052424;28;44857;-63
2021/12/20 09:03:31;;;;;;;4.05;2.00;;;22.10;45.50;;;;;;5059182;28;44663;-62
2021/12/20 09:05:59;;;;;;;3.58;1.95;;;22.20;45.50;;;;;;5056104;28;43993;-62
2021/12/20 09:08:30;;;;;;;3.43;2.00;;;22.20;45.50;;;;;;5042539;28;44334;-63
2021/12/20 09:10:58;;;;;;;2.90;1.90;;;22.40;45.40;;;;;;5054951;28;43755;-63
2021/12/20 09:13:25;;;;;;;3.67;1.90;;;22.40;46.00;;;;;;5020816;28;44052;-63
2021/12/20 09:15:55;;;;;;;3.47;2.03;;;22.50;45.20;;;;;;5044960;28;43722;-63
2021/12/20 09:18:24;;;;;;;3.63;1.88;;;22.60;45.20;;;;;;5057203;28;43548;-62
2021/12/20 09:20:51;;;;;;;3.85;2.00;;;22.70;45.30;;;;;;5048735;28;43606;-63
2021/12/20 09:23:19;;;;;;;3.95;2.10;;;22.80;45.00;;;;;;5060239;28;43812;-62
2021/12/20 09:25:46;;;;;;;2.20;1.83;;;22.90;44.90;;;;;;5052404;28;43547;-62
2021/12/20 09:28:15;;;;;;;4.65;1.88;;;23.00;44.80;;;;;;5062925;28;43540;-62
2021/12/20 09:30:45;;;;;;;3.90;1.60;;;23.10;44.70;;;;;;5041791;28;44913;-65
2021/12/20 09:33:14;;;;;;;3.40;1.85;;;23.20;44.50;;;;;;5036171;28;46445;-62
2021/12/20 09:35:42;;;;;;;4.75;1.70;;;23.30;44.50;;;;;;5035646;28;43624;-63
2021/12/20 09:38:15;;;;;;;4.72;1.90;;;23.40;44.30;;;;;;5062081;28;43571;-62
2021/12/20 09:41:13;;;;;;;3.20;1.60;;;23.40;44.20;;;;;;5052284;28;44503;-63
2021/12/20 09:43:41;;;;;;;3.08;1.60;;;23.60;44.20;;;;;;5055881;28;44026;-62
2021/12/20 09:46:08;;;;;;;5.80;1.80;;;23.60;44.20;;;;;;5054524;28;43564;-63
2021/12/20 09:48:36;;;;;;;2.72;1.80;;;23.70;44.00;;;;;;5058337;28;43684;-63
2021/12/20 09:51:05;;;;;;;3.88;1.92;;;23.80;43.90;;;;;;5042163;28;43639;-62
2021/12/20 09:53:32;;;;;;;2.90;1.70;;;23.80;43.80;;;;;;5050257;28;44386;-64
2021/12/20 09:56:01;;;;;;;3.10;1.95;;;23.90;43.70;;;;;;5063032;28;43922;-63
2021/12/20 09:58:35;;;;;;;4.20;1.73;;;23.90;43.50;;;;;;5053568;28;43620;-63
2021/12/20 10:01:06;;;;;;;3.53;1.85;;;23.90;43.60;;;;;;5033915;28;43744;-64
2021/12/20 10:03:34;;;;;;;5.10;1.75;;;23.90;43.50;;;;;;5064840;28;44964;-63
2021/12/20 10:06:02;;;;;;;4.57;1.85;;;23.90;43.30;;;;;;5052563;28;43519;-64
2021/12/20 10:08:49;;;;;;;4.68;1.85;;;23.90;43.30;;;;;;5052781;28;43580;-63
2021/12/20 10:11:18;;;;;;;4.30;1.95;;;24.00;43.20;;;;;;5045260;28;43644;-64
2021/12/20 10:13:47;;;;;;;3.35;1.70;;;23.90;43.30;;;;;;5056307;28;44288;-64
2021/12/20 10:16:21;;;;;;;2.67;1.85;;;23.90;43.30;;;;;;5052379;28;43712;-63
2021/12/20 10:18:49;;;;;;;2.72;1.80;;;23.90;43.30;;;;;;5042035;28;43620;-64
2021/12/20 10:21:17;;;;;;;2.28;1.55;;;23.90;43.30;;;;;;5034109;28;43893;-63
2021/12/20 10:23:49;;;;;;;4.45;1.80;;;23.90;43.40;;;;;;5059505;28;44188;-63
2021/12/20 10:26:20;;;;;;;3.53;1.90;;;23.90;43.40;;;;;;5058565;28;43606;-63
2021/12/20 10:28:53;;;;;;;5.03;1.90;;;23.90;43.40;;;;;;5043266;28;43639;-63
2021/12/20 10:31:24;;;;;;;3.78;2.30;;;23.90;43.50;;;;;;5040846;28;43752;-64
2021/12/20 10:33:59;;;;;;;5.07;2.30;;;23.90;43.50;;;;;;5056309;28;44048;-64
2021/12/20 10:36:28;;;;;;;5.85;2.90;;;23.80;43.50;;;;;;5058426;28;43557;-63
2021/12/20 10:38:58;;;;;;;6.38;2.47;;;23.90;43.60;;;;;;5064753;28;43668;-63
2021/12/20 10:41:35;;;;;;;10.13;3.55;;;23.90;43.60;;;;;;5052686;28;43648;-64
2021/12/20 10:44:17;;;;;;;7.53;3.58;;;23.80;43.70;;;;;;5034261;28;44194;-63
2021/12/20 10:46:51;;;;;;;10.82;4.28;;;23.80;43.80;;;;;;5051803;28;43969;-63
2021/12/20 10:49:26;;;;;;;12.23;4.22;;;23.80;43.90;;;;;;5032378;28;43583;-63
2021/12/20 10:51:54;;;;;;;13.10;5.20;;;23.70;44.00;;;;;;5055551;28;43668;-63
2021/12/20 10:54:29;;;;;;;12.30;4.95;;;23.80;44.10;;;;;;5046406;28;44064;-64
2021/12/20 10:57:05;;;;;;;13.05;4.95;;;23.80;44.30;;;;;;5047837;28;43871;-63
2021/12/20 10:59:35;;;;;;;15.63;6.13;;;23.70;44.20;;;;;;5029014;28;43579;-63
2021/12/20 11:05:23;;;;;;;14.20;5.35;;;23.70;44.30;;;;;;4984993;28;44027;-63
2021/12/20 11:10:39;;;;;;;15.02;5.57;;;23.70;44.50;;;;;;5043736;28;43705;-64
2021/12/20 11:13:16;;;;;;;11.13;4.75;;;23.70;44.50;;;;;;5051372;28;43594;-63
2021/12/20 11:15:44;;;;;;;14.57;5.00;;;23.70;44.60;;;;;;5029575;28;43630;-64
2021/12/20 11:18:16;;;;;;;12.35;5.50;;;23.70;44.60;;;;;;5035868;28;43595;-63
2021/12/20 11:20:43;;;;;;;13.95;5.15;;;23.70;44.70;;;;;;5028374;28;43511;-64
2021/12/20 11:23:12;;;;;;;13.90;5.85;;;23.70;44.80;;;;;;5048783;28;43497;-63
2021/12/20 11:25:42;;;;;;;14.57;5.43;;;23.70;44.80;;;;;;5044360;28;43676;-63
2021/12/20 11:28:09;;;;;;;11.80;5.30;;;23.70;44.80;;;;;;5052655;28;43600;-64
2021/12/20 11:30:37;;;;;;;12.80;5.70;;;23.70;44.90;;;;;;5050434;28;43878;-63
2021/12/20 11:33:04;;;;;;;11.70;5.05;;;23.70;44.90;;;;;;5052174;28;43729;-64
2021/12/20 11:35:33;;;;;;;13.20;5.38;;;23.70;44.90;;;;;;5053778;28;43732;-63
2021/12/20 11:38:00;;;;;;;13.77;5.43;;;23.70;44.80;;;;;;5033156;28;44230;-62
2021/12/20 11:40:29;;;;;;;13.45;5.30;;;23.70;44.90;;;;;;5051264;28;43647;-63
2021/12/20 11:42:58;;;;;;;;;;;23.70;44.80;;;;;;5037272;28;43641;-64
2021/12/20 11:45:28;;;;;;;12.85;5.45;;;23.70;44.90;;;;;;5037548;28;44433;-64
2021/12/20 11:48:13;;;;;;;11.43;4.70;;;23.70;45.00;;;;;;5052802;28;43666;-64
2021/12/20 11:50:43;;;;;;;14.80;6.15;;;23.60;45.00;;;;;;5051986;28;43658;-63
2021/12/20 11:53:16;;;;;;;13.25;5.13;;;23.60;45.10;;;;;;5054291;28;44281;-63
2021/12/20 11:55:46;;;;;;;10.93;5.13;;;23.50;45.10;;;;;;5058260;28;44195;-63
2021/12/20 11:58:20;;;;;;;10.80;5.22;;;23.50;45.80;;;;;;5056108;28;43699;-64
2021/12/20 12:00:52;;;;;;;11.88;4.93;;;23.60;45.10;;;;;;5047142;28;43616;-63
2021/12/20 12:03:24;;;;;;;9.27;4.25;;;23.60;45.10;;;;;;5055174;28;43651;-64
2021/12/20 12:05:59;;;;;;;11.52;4.95;;;23.60;45.10;;;;;;5048306;28;43807;-64
2021/12/20 12:08:32;;;;;;;10.05;4.45;;;23.70;45.10;;;;;;5054810;28;43717;-64
2021/12/20 12:11:09;;;;;;;9.25;3.92;;;23.70;45.10;;;;;;5048409;28;43558;-64
2021/12/20 12:14:00;;;;;;;10.68;4.38;;;23.70;45.10;;;;;;5049413;28;43616;-64
2021/12/20 12:16:57;;;;;;;9.70;4.28;;;23.70;45.10;;;;;;5058774;28;44689;-64
2021/12/20 12:19:45;;;;;;;10.07;4.60;;;23.70;45.10;;;;;;5050731;28;44958;-63
2021/12/20 12:22:32;;;;;;;8.75;4.30;;;23.70;45.20;;;;;;5054503;28;43579;-63
2021/12/20 12:25:10;;;;;;;7.43;3.90;;;23.70;45.20;;;;;;5056278;28;43616;-63
2021/12/20 12:27:41;;;;;;;9.23;4.43;;;23.70;45.30;;;;;;5049459;28;45032;-63
2021/12/20 12:30:11;;;;;;;9.73;4.13;;;23.70;45.20;;;;;;5052280;28;44845;-63
2021/12/20 12:32:48;;;;;;;8.75;3.90;;;23.70;45.20;;;;;;5055929;28;43560;-63
2021/12/20 12:35:47;;;;;;;7.47;3.83;;;23.70;45.30;;;;;;5050759;28;43601;-63
2021/12/20 12:38:16;;;;;;;8.93;4.10;;;23.70;45.40;;;;;;5049805;28;43556;-65
2021/12/20 12:40:48;;;;;;;9.23;4.10;;;23.60;45.30;;;;;;5042231;28;43625;-63
2021/12/20 12:43:19;;;;;;;7.30;3.72;;;23.70;45.10;;;;;;5045718;28;44241;-63
2021/12/20 12:45:55;;;;;;;6.75;3.60;;;23.70;45.40;;;;;;5053573;28;43679;-64
2021/12/20 12:48:44;;;;;;;7.28;3.40;;;23.60;45.30;;;;;;5046286;28;44937;-63
2021/12/20 12:51:20;;;;;;;8.20;3.65;;;23.60;45.30;;;;;;5025652;28;43592;-64
2021/12/20 12:53:49;;;;;;;8.32;3.63;;;23.60;45.30;;;;;;5048894;28;43631;-63
2021/12/20 12:56:26;;;;;;;7.18;3.15;;;23.60;45.30;;;;;;5047282;28;44813;-63
2021/12/20 12:59:12;;;;;;;8.05;3.35;;;23.60;45.00;;;;;;5053466;28;44123;-63
2021/12/20 13:01:51;;;;;;;6.35;3.28;;;23.70;45.30;;;;;;5055493;28;43644;-64
2021/12/20 13:04:48;;;;;;;6.00;3.08;;;23.70;45.30;;;;;;5051754;28;43594;-63
2021/12/20 13:07:20;;;;;;;6.25;3.08;;;23.70;45.30;;;;;;5056099;28;43513;-63
2021/12/20 13:09:49;;;;;;;5.72;3.00;;;23.70;45.30;;;;;;5032959;28;44977;-63
2021/12/20 13:12:29;;;;;;;7.43;3.35;;;23.70;45.30;;;;;;5048760;28;43669;-64
2021/12/20 13:17:39;;;;;;;5.63;2.72;;;23.70;45.30;;;;;;5051010;28;43943;-63
2021/12/20 13:20:25;;;;;;;5.10;2.90;;;23.60;45.30;;;;;;5037653;28;45791;-64